sensor_id;sensor_type;location;lat;lon;timestamp;pressure;altitude;pressure_sealevel;temperature;humidity
8398;BME280;4236;54.504;9.588;2023-06-04T00:02:27;102316.75;;;10.81;100.00
8398;BME280;4236;54.504;9.588;2023-06-04T00:04:55;102314.59;;;10.77;100.00
8398;BME280;4236;54.504;9.588;2023-06-04T00:07:23;102310.56;;;10.73;100.00
8398;BME280;4236;54.504;9.588;2023-06-04T00:09:52;102315.06;;;10.72;100.00
8398;BME280;4236;54.504;9.588;2023-06-04T00:12:19;102305.19;;;10.65;100.00
8398;BME280;4236;54.504;9.588;2023-06-04T00:14:47;102310.53;;;10.65;100.00
8398;BME280;4236;54.504;9.588;2023-06-04T00:17:15;102309.53;;;10.66;100.00
8398;BME280;4236;54.504;9.588;2023-06-04T00:19:44;102303.50;;;10.64;100.00
8398;BME280;4236;54.504;9.588;2023-06-04T00:22:12;102308.16;;;10.62;100.00
8398;BME280;4236;54.504;9.588;2023-06-04T00:24:40;102312.00;;;10.59;100.00
8398;BME280;4236;54.504;9.588;2023-06-04T00:27:08;102304.31;;;10.56;100.00
8398;BME280;4236;54.504;9.588;2023-06-04T00:29:36;102312.97;;;10.58;100.00
8398;BME280;4236;54.504;9.588;2023-06-04T00:32:04;102309.13;;;10.52;100.00
8398;BME280;4236;54.504;9.588;2023-06-04T00:34:32;102312.28;;;10.48;100.00
8398;BME280;4236;54.504;9.588;2023-06-04T00:37:01;102304.59;;;10.45;100.00
8398;BME280;4236;54.504;9.588;2023-06-04T00:39:29;102302.59;;;10.47;100.00
8398;BME280;4236;54.504;9.588;2023-06-04T00:41:56;102301.22;;;10.43;100.00
8398;BME280;4236;54.504;9.588;2023-06-04T00:44:24;102299.50;;;10.34;100.00
8398;BME280;4236;54.504;9.588;2023-06-04T00:46:53;102300.03;;;10.37;100.00
8398;BME280;4236;54.504;9.588;2023-06-04T00:49:21;102301.50;;;10.32;100.00
8398;BME280;4236;54.504;9.588;2023-06-04T00:51:49;102297.38;;;10.37;100.00
8398;BME280;4236;54.504;9.588;2023-06-04T00:54:19;102301.66;;;10.30;100.00
8398;BME280;4236;54.504;9.588;2023-06-04T00:56:47;102300.97;;;10.28;100.00
8398;BME280;4236;54.504;9.588;2023-06-04T00:59:15;102294.59;;;10.21;100.00
8398;BME280;4236;54.504;9.588;2023-06-04T01:01:48;102296.16;;;10.32;100.00
8398;BME280;4236;54.504;9.588;2023-06-04T01:04:21;102292.66;;;10.31;100.00
8398;BME280;4236;54.504;9.588;2023-06-04T01:06:53;102288.78;;;10.26;100.00
8398;BME280;4236;54.504;9.588;2023-06-04T01:09:26;102299.16;;;10.29;100.00
8398;BME280;4236;54.504;9.588;2023-06-04T01:11:54;102300.28;;;10.26;100.00
8398;BME280;4236;54.504;9.588;2023-06-04T01:14:25;102298.63;;;10.25;100.00
8398;BME280;4236;54.504;9.588;2023-06-04T01:16:56;102300.91;;;10.20;100.00
8398;BME280;4236;54.504;9.588;2023-06-04T01:22:43;102299.78;;;10.23;100.00
8398;BME280;4236;54.504;9.588;2023-06-04T01:25:15;102302.44;;;10.23;100.00
8398;BME280;4236;54.504;9.588;2023-06-04T01:27:49;102295.72;;;10.19;100.00
8398;BME280;4236;54.504;9.588;2023-06-04T01:30:21;102302.38;;;10.15;100.00
8398;BME280;4236;54.504;9.588;2023-06-04T01:32:50;102299.88;;;10.13;100.00
8398;BME280;4236;54.504;9.588;2023-06-04T01:35:19;102299.88;;;10.13;100.00
8398;BME280;4236;54.504;9.588;2023-06-04T01:37:47;102300.56;;;10.15;100.00
8398;BME280;4236;54.504;9.588;2023-06-04T01:40:17;102293.66;;;10.13;100.00
8398;BME280;4236;54.504;9.588;2023-06-04T01:42:44;102297.78;;;10.07;100.00
8398;BME280;4236;54.504;9.588;2023-06-04T01:45:12;102297.13;;;10.05;100.00
8398;BME280;4236;54.504;9.588;2023-06-04T01:47:40;102300.94;;;10.02;100.00
8398;BME280;4236;54.504;9.588;2023-06-04T01:50:08;102305.41;;;10.02;100.00
8398;BME280;4236;54.504;9.588;2023-06-04T01:52:36;102299.56;;;9.98;100.00
8398;BME280;4236;54.504;9.588;2023-06-04T01:55:04;102295.75;;;10.01;100.00
8398;BME280;4236;54.504;9.588;2023-06-04T01:57:35;102298.88;;;9.96;100.00
8398;BME280;4236;54.504;9.588;2023-06-04T02:00:04;102302.69;;;9.94;100.00
8398;BME280;4236;54.504;9.588;2023-06-04T02:02:36;102302.53;;;9.95;100.00
8398;BME280;4236;54.504;9.588;2023-06-04T02:05:05;102299.03;;;9.95;100.00
8398;BME280;4236;54.504;9.588;2023-06-04T02:07:34;102300.34;;;9.91;100.00
8398;BME280;4236;54.504;9.588;2023-06-04T02:10:05;102300.19;;;9.92;100.00
8398;BME280;4236;54.504;9.588;2023-06-04T02:12:36;102307.63;;;9.89;100.00
8398;BME280;4236;54.504;9.588;2023-06-04T02:15:05;102305.81;;;9.89;100.00
8398;BME280;4236;54.504;9.588;2023-06-04T02:17:33;102298.44;;;9.83;100.00
8398;BME280;4236;54.504;9.588;2023-06-04T02:20:07;102306.59;;;9.82;100.00
8398;BME280;4236;54.504;9.588;2023-06-04T02:22:36;102305.59;;;9.83;100.00
8398;BME280;4236;54.504;9.588;2023-06-04T02:25:05;102305.44;;;9.84;100.00
8398;BME280;4236;54.504;9.588;2023-06-04T02:27:36;102311.75;;;9.83;100.00
8398;BME280;4236;54.504;9.588;2023-06-04T02:30:05;102313.06;;;9.79;100.00
8398;BME280;4236;54.504;9.588;2023-06-04T02:32:33;102313.06;;;9.79;100.00
8398;BME280;4236;54.504;9.588;2023-06-04T02:35:03;102313.56;;;9.83;100.00
8398;BME280;4236;54.504;9.588;2023-06-04T02:37:31;102311.22;;;9.80;100.00
8398;BME280;4236;54.504;9.588;2023-06-04T02:39:58;102318.22;;;9.81;100.00
8398;BME280;4236;54.504;9.588;2023-06-04T02:42:26;102316.56;;;9.80;100.00
8398;BME280;4236;54.504;9.588;2023-06-04T02:44:55;102322.59;;;9.82;100.00
8398;BME280;4236;54.504;9.588;2023-06-04T02:47:23;102318.09;;;9.82;100.00
8398;BME280;4236;54.504;9.588;2023-06-04T02:49:51;102324.25;;;9.83;100.00
8398;BME280;4236;54.504;9.588;2023-06-04T02:52:18;102321.75;;;9.81;100.00
8398;BME280;4236;54.504;9.588;2023-06-04T02:54:49;102327.06;;;9.81;100.00
8398;BME280;4236;54.504;9.588;2023-06-04T02:57:16;102317.94;;;9.84;100.00
8398;BME280;4236;54.504;9.588;2023-06-04T02:59:44;102326.59;;;9.86;100.00
8398;BME280;4236;54.504;9.588;2023-06-04T03:02:13;102319.44;;;9.86;100.00
8398;BME280;4236;54.504;9.588;2023-06-04T03:04:41;102320.28;;;9.87;100.00
8398;BME280;4236;54.504;9.588;2023-06-04T03:07:10;102327.31;;;9.88;100.00
8398;BME280;4236;54.504;9.588;2023-06-04T03:09:38;102313.66;;;9.91;100.00
8398;BME280;4236;54.504;9.588;2023-06-04T03:12:07;102320.66;;;9.92;100.00
8398;BME280;4236;54.504;9.588;2023-06-04T03:14:34;102317.84;;;9.93;100.00
8398;BME280;4236;54.504;9.588;2023-06-04T03:17:03;102319.66;;;9.93;100.00
8398;BME280;4236;54.504;9.588;2023-06-04T03:19:39;102327.00;;;9.91;100.00
8398;BME280;4236;54.504;9.588;2023-06-04T03:22:08;102320.75;;;10.00;100.00
8398;BME280;4236;54.504;9.588;2023-06-04T03:24:38;102319.72;;;10.19;100.00
8398;BME280;4236;54.504;9.588;2023-06-04T03:27:07;102322.16;;;10.55;100.00
8398;BME280;4236;54.504;9.588;2023-06-04T03:29:35;102316.50;;;10.59;100.00
8398;BME280;4236;54.504;9.588;2023-06-04T03:32:04;102319.38;;;10.65;100.00
8398;BME280;4236;54.504;9.588;2023-06-04T03:34:32;102314.50;;;10.61;100.00
8398;BME280;4236;54.504;9.588;2023-06-04T03:37:03;102319.16;;;10.59;100.00
8398;BME280;4236;54.504;9.588;2023-06-04T03:39:30;102315.13;;;10.54;100.00
8398;BME280;4236;54.504;9.588;2023-06-04T03:41:58;102313.16;;;10.57;100.00
8398;BME280;4236;54.504;9.588;2023-06-04T03:44:26;102314.13;;;10.55;100.00
8398;BME280;4236;54.504;9.588;2023-06-04T03:46:53;102318.00;;;10.61;100.00
8398;BME280;4236;54.504;9.588;2023-06-04T03:49:21;102313.06;;;10.66;100.00
8398;BME280;4236;54.504;9.588;2023-06-04T03:51:49;102311.03;;;10.68;100.00
8398;BME280;4236;54.504;9.588;2023-06-04T03:54:18;102310.72;;;10.71;100.00
8398;BME280;4236;54.504;9.588;2023-06-04T03:56:47;102317.88;;;10.71;100.00
8398;BME280;4236;54.504;9.588;2023-06-04T03:59:14;102317.25;;;10.77;100.00
8398;BME280;4236;54.504;9.588;2023-06-04T04:01:42;102307.13;;;10.88;100.00
8398;BME280;4236;54.504;9.588;2023-06-04T04:04:10;102299.78;;;10.90;100.00
8398;BME280;4236;54.504;9.588;2023-06-04T04:06:39;102304.84;;;11.01;100.00
8398;BME280;4236;54.504;9.588;2023-06-04T04:09:07;102302.00;;;10.95;100.00
8398;BME280;4236;54.504;9.588;2023-06-04T04:11:36;102301.16;;;10.94;100.00
8398;BME280;4236;54.504;9.588;2023-06-04T04:14:04;102301.03;;;11.04;100.00
8398;BME280;4236;54.504;9.588;2023-06-04T04:16:32;102309.06;;;11.12;100.00
8398;BME280;4236;54.504;9.588;2023-06-04T04:19:00;102297.72;;;11.18;100.00
8398;BME280;4236;54.504;9.588;2023-06-04T04:21:27;102310.09;;;11.27;100.00
8398;BME280;4236;54.504;9.588;2023-06-04T04:23:55;102305.28;;;11.39;100.00
8398;BME280;4236;54.504;9.588;2023-06-04T04:26:23;102296.84;;;12.08;100.00
8398;BME280;4236;54.504;9.588;2023-06-04T04:28:55;102300.38;;;13.18;100.00
8398;BME280;4236;54.504;9.588;2023-06-04T04:31:25;102289.16;;;14.06;100.00
8398;BME280;4236;54.504;9.588;2023-06-04T04:33:54;102286.84;;;14.84;100.00
8398;BME280;4236;54.504;9.588;2023-06-04T04:36:22;102283.81;;;15.59;100.00
8398;BME280;4236;54.504;9.588;2023-06-04T04:38:50;102279.53;;;16.20;100.00
8398;BME280;4236;54.504;9.588;2023-06-04T04:41:21;102284.19;;;16.60;100.00
8398;BME280;4236;54.504;9.588;2023-06-04T04:43:49;102276.75;;;17.16;100.00
8398;BME280;4236;54.504;9.588;2023-06-04T04:46:18;102279.81;;;17.74;100.00
8398;BME280;4236;54.504;9.588;2023-06-04T04:48:46;102286.47;;;17.91;96.96
8398;BME280;4236;54.504;9.588;2023-06-04T04:51:14;102285.78;;;18.48;99.29
8398;BME280;4236;54.504;9.588;2023-06-04T04:53:42;102286.63;;;18.55;90.85
8398;BME280;4236;54.504;9.588;2023-06-04T04:56:09;102287.75;;;18.92;84.52
8398;BME280;4236;54.504;9.588;2023-06-04T04:58:37;102284.31;;;19.16;81.35
8398;BME280;4236;54.504;9.588;2023-06-04T05:01:05;102297.25;;;19.07;74.03
8398;BME280;4236;54.504;9.588;2023-06-04T05:03:34;102290.84;;;19.02;80.06
8398;BME280;4236;54.504;9.588;2023-06-04T05:06:02;102287.75;;;19.29;83.30
8398;BME280;4236;54.504;9.588;2023-06-04T05:08:30;102290.72;;;19.21;75.39
8398;BME280;4236;54.504;9.588;2023-06-04T05:10:58;102289.09;;;19.58;75.32
8398;BME280;4236;54.504;9.588;2023-06-04T05:13:25;102281.91;;;19.95;71.90
8398;BME280;4236;54.504;9.588;2023-06-04T05:15:53;102281.47;;;19.98;68.73
8398;BME280;4236;54.504;9.588;2023-06-04T05:18:21;102279.34;;;20.31;74.39
8398;BME280;4236;54.504;9.588;2023-06-04T05:20:57;102286.06;;;20.47;69.65
8398;BME280;4236;54.504;9.588;2023-06-04T05:23:26;102282.00;;;20.74;66.87
8398;BME280;4236;54.504;9.588;2023-06-04T05:25:54;102278.69;;;20.54;63.31
8398;BME280;4236;54.504;9.588;2023-06-04T05:28:22;102285.38;;;20.70;63.20
8398;BME280;4236;54.504;9.588;2023-06-04T05:30:51;102281.53;;;21.14;63.51
8398;BME280;4236;54.504;9.588;2023-06-04T05:33:26;102283.66;;;20.93;60.54
8398;BME280;4236;54.504;9.588;2023-06-04T05:35:54;102282.41;;;21.08;61.77
8398;BME280;4236;54.504;9.588;2023-06-04T05:38:25;102293.94;;;21.03;61.42
8398;BME280;4236;54.504;9.588;2023-06-04T05:40:53;102292.78;;;20.81;59.13
8398;BME280;4236;54.504;9.588;2023-06-04T05:43:22;102286.75;;;20.42;63.80
8398;BME280;4236;54.504;9.588;2023-06-04T05:45:49;102288.84;;;20.77;61.40
8398;BME280;4236;54.504;9.588;2023-06-04T05:48:18;102286.66;;;20.85;60.51
8398;BME280;4236;54.504;9.588;2023-06-04T05:50:45;102291.72;;;20.64;63.26
8398;BME280;4236;54.504;9.588;2023-06-04T05:53:13;102282.59;;;20.58;62.05
8398;BME280;4236;54.504;9.588;2023-06-04T05:55:43;102286.13;;;20.77;62.69
8398;BME280;4236;54.504;9.588;2023-06-04T05:58:10;102286.56;;;20.92;60.96
8398;BME280;4236;54.504;9.588;2023-06-04T06:00:38;102288.75;;;21.02;62.29
8398;BME280;4236;54.504;9.588;2023-06-04T06:03:06;102286.13;;;21.13;61.09
8398;BME280;4236;54.504;9.588;2023-06-04T06:05:34;102286.03;;;21.49;60.00
8398;BME280;4236;54.504;9.588;2023-06-04T06:08:02;102287.41;;;21.40;58.13
8398;BME280;4236;54.504;9.588;2023-06-04T06:10:29;102286.38;;;20.93;60.67
8398;BME280;4236;54.504;9.588;2023-06-04T06:12:58;102290.72;;;21.13;57.74
8398;BME280;4236;54.504;9.588;2023-06-04T06:15:27;102289.06;;;21.41;59.97
8398;BME280;4236;54.504;9.588;2023-06-04T06:17:55;102284.66;;;21.29;57.34
8398;BME280;4236;54.504;9.588;2023-06-04T06:20:23;102288.38;;;21.46;60.17
8398;BME280;4236;54.504;9.588;2023-06-04T06:22:51;102292.53;;;21.19;56.84
8398;BME280;4236;54.504;9.588;2023-06-04T06:25:18;102287.63;;;21.39;57.58
8398;BME280;4236;54.504;9.588;2023-06-04T06:27:46;102300.06;;;21.17;58.00
8398;BME280;4236;54.504;9.588;2023-06-04T06:30:16;102291.47;;;21.20;59.51
8398;BME280;4236;54.504;9.588;2023-06-04T06:32:45;102282.97;;;21.16;58.70
8398;BME280;4236;54.504;9.588;2023-06-04T06:35:15;102283.69;;;21.53;57.76
8398;BME280;4236;54.504;9.588;2023-06-04T06:37:42;102287.06;;;21.37;58.32
8398;BME280;4236;54.504;9.588;2023-06-04T06:40:10;102278.00;;;21.55;57.02
8398;BME280;4236;54.504;9.588;2023-06-04T06:42:39;102285.63;;;21.87;56.62
8398;BME280;4236;54.504;9.588;2023-06-04T06:45:07;102284.41;;;22.25;55.35
8398;BME280;4236;54.504;9.588;2023-06-04T06:47:36;102293.13;;;22.27;55.21
8398;BME280;4236;54.504;9.588;2023-06-04T06:50:05;102287.09;;;22.01;54.93
8398;BME280;4236;54.504;9.588;2023-06-04T06:52:33;102294.13;;;21.68;54.33
8398;BME280;4236;54.504;9.588;2023-06-04T06:55:00;102291.22;;;21.92;54.69
8398;BME280;4236;54.504;9.588;2023-06-04T06:57:28;102297.84;;;22.31;52.12
8398;BME280;4236;54.504;9.588;2023-06-04T06:59:56;102299.06;;;22.12;52.21
8398;BME280;4236;54.504;9.588;2023-06-04T07:02:23;102298.97;;;21.77;53.82
8398;BME280;4236;54.504;9.588;2023-06-04T07:04:53;102290.34;;;21.80;54.11
8398;BME280;4236;54.504;9.588;2023-06-04T07:07:21;102298.00;;;21.72;53.97
8398;BME280;4236;54.504;9.588;2023-06-04T07:09:49;102302.78;;;21.46;54.53
8398;BME280;4236;54.504;9.588;2023-06-04T07:12:17;102300.47;;;21.62;54.39
8398;BME280;4236;54.504;9.588;2023-06-04T07:14:45;102301.53;;;21.31;55.20
8398;BME280;4236;54.504;9.588;2023-06-04T07:17:12;102301.78;;;21.29;54.20
8398;BME280;4236;54.504;9.588;2023-06-04T07:19:40;102303.31;;;21.67;53.02
8398;BME280;4236;54.504;9.588;2023-06-04T07:22:09;102307.41;;;21.58;52.86
8398;BME280;4236;54.504;9.588;2023-06-04T07:24:37;102312.63;;;21.29;52.88
8398;BME280;4236;54.504;9.588;2023-06-04T07:27:10;102308.44;;;20.61;54.41
8398;BME280;4236;54.504;9.588;2023-06-04T07:29:38;102320.25;;;20.66;54.74
8398;BME280;4236;54.504;9.588;2023-06-04T07:32:06;102319.09;;;21.28;54.43
8398;BME280;4236;54.504;9.588;2023-06-04T07:34:34;102316.03;;;21.25;53.80
8398;BME280;4236;54.504;9.588;2023-06-04T07:37:03;102313.44;;;21.60;52.87
8398;BME280;4236;54.504;9.588;2023-06-04T07:39:33;102323.31;;;21.24;53.32
8398;BME280;4236;54.504;9.588;2023-06-04T07:42:01;102323.16;;;21.37;53.36
8398;BME280;4236;54.504;9.588;2023-06-04T07:44:29;102319.25;;;21.33;53.27
8398;BME280;4236;54.504;9.588;2023-06-04T07:46:56;102321.00;;;20.73;53.71
8398;BME280;4236;54.504;9.588;2023-06-04T07:49:24;102322.59;;;20.63;52.74
8398;BME280;4236;54.504;9.588;2023-06-04T07:51:52;102316.19;;;20.93;55.46
8398;BME280;4236;54.504;9.588;2023-06-04T07:54:19;102314.66;;;20.97;54.83
8398;BME280;4236;54.504;9.588;2023-06-04T07:56:48;102310.84;;;21.23;54.04
8398;BME280;4236;54.504;9.588;2023-06-04T07:59:22;102315.56;;;20.73;55.49
8398;BME280;4236;54.504;9.588;2023-06-04T08:01:50;102313.69;;;20.74;55.12
8398;BME280;4236;54.504;9.588;2023-06-04T08:04:18;102322.09;;;20.23;57.84
8398;BME280;4236;54.504;9.588;2023-06-04T08:06:46;102321.84;;;20.31;58.17
8398;BME280;4236;54.504;9.588;2023-06-04T08:09:14;102315.63;;;19.43;60.47
8398;BME280;4236;54.504;9.588;2023-06-04T08:11:42;102321.31;;;18.58;64.89
8398;BME280;4236;54.504;9.588;2023-06-04T08:14:12;102314.69;;;18.54;64.61
8398;BME280;4236;54.504;9.588;2023-06-04T08:16:40;102319.03;;;18.29;74.88
8398;BME280;4236;54.504;9.588;2023-06-04T08:19:08;102312.84;;;17.89;71.29
8398;BME280;4236;54.504;9.588;2023-06-04T08:21:36;102305.38;;;17.97;73.69
8398;BME280;4236;54.504;9.588;2023-06-04T08:24:03;102309.09;;;19.13;72.04
8398;BME280;4236;54.504;9.588;2023-06-04T08:26:31;102316.66;;;19.42;65.83
8398;BME280;4236;54.504;9.588;2023-06-04T08:29:02;102309.91;;;19.13;67.95
8398;BME280;4236;54.504;9.588;2023-06-04T08:31:32;102309.19;;;18.87;70.57
8398;BME280;4236;54.504;9.588;2023-06-04T08:34:00;102313.75;;;18.93;67.58
8398;BME280;4236;54.504;9.588;2023-06-04T08:36:27;102317.84;;;19.84;67.80
8398;BME280;4236;54.504;9.588;2023-06-04T08:38:55;102315.31;;;19.58;66.74
8398;BME280;4236;54.504;9.588;2023-06-04T08:41:28;102318.66;;;19.09;66.67
8398;BME280;4236;54.504;9.588;2023-06-04T08:43:56;102319.47;;;19.16;68.38
8398;BME280;4236;54.504;9.588;2023-06-04T08:46:27;102312.38;;;19.59;67.82
8398;BME280;4236;54.504;9.588;2023-06-04T08:48:59;102321.41;;;19.78;61.64
8398;BME280;4236;54.504;9.588;2023-06-04T08:51:28;102324.84;;;19.22;63.94
8398;BME280;4236;54.504;9.588;2023-06-04T08:53:58;102317.03;;;19.01;66.58
8398;BME280;4236;54.504;9.588;2023-06-04T08:56:26;102317.66;;;19.48;65.19
8398;BME280;4236;54.504;9.588;2023-06-04T08:58:56;102323.22;;;20.40;63.23
8398;BME280;4236;54.504;9.588;2023-06-04T09:01:27;102317.53;;;20.66;60.24
8398;BME280;4236;54.504;9.588;2023-06-04T09:03:57;102313.75;;;21.04;61.40
8398;BME280;4236;54.504;9.588;2023-06-04T09:06:25;102322.09;;;20.29;62.73
8398;BME280;4236;54.504;9.588;2023-06-04T09:08:56;102321.00;;;19.81;66.35
8398;BME280;4236;54.504;9.588;2023-06-04T09:11:26;102317.44;;;19.56;65.77
8398;BME280;4236;54.504;9.588;2023-06-04T09:13:59;102318.84;;;20.14;64.24
8398;BME280;4236;54.504;9.588;2023-06-04T09:16:28;102321.94;;;19.93;62.60
8398;BME280;4236;54.504;9.588;2023-06-04T09:19:04;102317.47;;;20.05;64.95
8398;BME280;4236;54.504;9.588;2023-06-04T09:21:32;102324.13;;;20.09;66.85
8398;BME280;4236;54.504;9.588;2023-06-04T09:24:00;102324.56;;;20.31;64.35
8398;BME280;4236;54.504;9.588;2023-06-04T09:26:28;102318.78;;;19.96;66.19
8398;BME280;4236;54.504;9.588;2023-06-04T09:28:57;102315.34;;;19.51;70.91
8398;BME280;4236;54.504;9.588;2023-06-04T09:31:26;102313.78;;;18.73;74.45
8398;BME280;4236;54.504;9.588;2023-06-04T09:33:55;102316.47;;;18.93;80.27
8398;BME280;4236;54.504;9.588;2023-06-04T09:36:30;102318.38;;;19.23;73.75
8398;BME280;4236;54.504;9.588;2023-06-04T09:38:57;102318.41;;;18.46;86.65
8398;BME280;4236;54.504;9.588;2023-06-04T09:41:25;102319.44;;;18.58;79.60
8398;BME280;4236;54.504;9.588;2023-06-04T09:43:59;102315.47;;;18.74;77.74
8398;BME280;4236;54.504;9.588;2023-06-04T09:46:29;102320.88;;;18.67;76.51
8398;BME280;4236;54.504;9.588;2023-06-04T09:49:02;102314.84;;;18.78;75.37
8398;BME280;4236;54.504;9.588;2023-06-04T09:51:32;102321.34;;;19.91;70.93
8398;BME280;4236;54.504;9.588;2023-06-04T09:54:02;102318.50;;;20.04;68.58
8398;BME280;4236;54.504;9.588;2023-06-04T09:56:39;102323.28;;;19.53;71.22
8398;BME280;4236;54.504;9.588;2023-06-04T09:59:09;102323.81;;;19.68;73.63
8398;BME280;4236;54.504;9.588;2023-06-04T10:01:39;102329.47;;;19.09;71.72
8398;BME280;4236;54.504;9.588;2023-06-04T10:04:08;102328.81;;;19.20;73.70
8398;BME280;4236;54.504;9.588;2023-06-04T10:06:40;102325.28;;;19.19;70.50
8398;BME280;4236;54.504;9.588;2023-06-04T10:09:09;102329.84;;;18.61;72.22
8398;BME280;4236;54.504;9.588;2023-06-04T10:11:40;102316.47;;;18.93;75.34
8398;BME280;4236;54.504;9.588;2023-06-04T10:14:17;102324.28;;;19.07;68.61
8398;BME280;4236;54.504;9.588;2023-06-04T10:16:47;102314.19;;;19.41;69.82
8398;BME280;4236;54.504;9.588;2023-06-04T10:19:16;102320.16;;;19.49;73.09
8398;BME280;4236;54.504;9.588;2023-06-04T10:21:47;102323.38;;;19.71;73.12
8398;BME280;4236;54.504;9.588;2023-06-04T10:24:15;102319.69;;;19.59;72.42
8398;BME280;4236;54.504;9.588;2023-06-04T10:26:43;102314.66;;;19.62;67.29
8398;BME280;4236;54.504;9.588;2023-06-04T10:29:12;102321.56;;;20.14;69.05
8398;BME280;4236;54.504;9.588;2023-06-04T10:31:42;102324.94;;;19.85;67.66
8398;BME280;4236;54.504;9.588;2023-06-04T10:34:11;102320.34;;;19.85;68.90
8398;BME280;4236;54.504;9.588;2023-06-04T10:36:43;102315.31;;;19.89;68.28
8398;BME280;4236;54.504;9.588;2023-06-04T10:39:13;102320.03;;;20.00;70.06
8398;BME280;4236;54.504;9.588;2023-06-04T10:41:41;102328.00;;;20.63;67.47
8398;BME280;4236;54.504;9.588;2023-06-04T10:44:09;102321.78;;;21.17;65.62
8398;BME280;4236;54.504;9.588;2023-06-04T10:46:40;102328.66;;;21.61;61.41
8398;BME280;4236;54.504;9.588;2023-06-04T10:49:09;102318.41;;;21.63;57.67
8398;BME280;4236;54.504;9.588;2023-06-04T10:51:38;102323.72;;;21.10;58.23
8398;BME280;4236;54.504;9.588;2023-06-04T10:54:07;102327.03;;;21.12;61.39
8398;BME280;4236;54.504;9.588;2023-06-04T10:56:36;102330.28;;;21.02;62.75
8398;BME280;4236;54.504;9.588;2023-06-04T10:59:15;102336.81;;;20.09;66.75
8398;BME280;4236;54.504;9.588;2023-06-04T11:01:43;102340.44;;;19.96;64.00
8398;BME280;4236;54.504;9.588;2023-06-04T11:04:19;102340.00;;;20.30;64.57
8398;BME280;4236;54.504;9.588;2023-06-04T11:06:48;102334.88;;;19.91;65.06
8398;BME280;4236;54.504;9.588;2023-06-04T11:09:16;102327.47;;;19.42;69.68
8398;BME280;4236;54.504;9.588;2023-06-04T11:11:57;102334.22;;;19.64;72.04
8398;BME280;4236;54.504;9.588;2023-06-04T11:14:25;102331.75;;;20.19;70.67
8398;BME280;4236;54.504;9.588;2023-06-04T11:16:53;102327.81;;;21.48;66.55
8398;BME280;4236;54.504;9.588;2023-06-04T11:19:21;102323.69;;;21.58;65.29
8398;BME280;4236;54.504;9.588;2023-06-04T11:21:49;102325.94;;;21.90;64.26
8398;BME280;4236;54.504;9.588;2023-06-04T11:24:17;102321.41;;;21.84;63.70
8398;BME280;4236;54.504;9.588;2023-06-04T11:26:46;102334.16;;;21.42;63.59
8398;BME280;4236;54.504;9.588;2023-06-04T11:29:36;102330.34;;;21.32;63.07
8398;BME280;4236;54.504;9.588;2023-06-04T11:32:04;102324.34;;;20.32;68.12
8398;BME280;4236;54.504;9.588;2023-06-04T11:34:32;102327.66;;;19.78;70.19
8398;BME280;4236;54.504;9.588;2023-06-04T11:37:08;102326.97;;;19.14;74.40
8398;BME280;4236;54.504;9.588;2023-06-04T11:39:36;102325.53;;;19.11;81.30
8398;BME280;4236;54.504;9.588;2023-06-04T11:42:06;102328.09;;;19.38;78.83
8398;BME280;4236;54.504;9.588;2023-06-04T11:44:36;102323.47;;;19.00;83.10
8398;BME280;4236;54.504;9.588;2023-06-04T11:47:05;102329.09;;;19.05;80.05
8398;BME280;4236;54.504;9.588;2023-06-04T11:49:34;102323.22;;;19.15;82.98
8398;BME280;4236;54.504;9.588;2023-06-04T11:52:04;102320.31;;;18.39;86.94
8398;BME280;4236;54.504;9.588;2023-06-04T11:54:32;102327.78;;;18.50;88.77
8398;BME280;4236;54.504;9.588;2023-06-04T11:57:03;102323.31;;;18.89;86.83
8398;BME280;4236;54.504;9.588;2023-06-04T11:59:32;102334.81;;;18.58;94.24
8398;BME280;4236;54.504;9.588;2023-06-04T12:02:02;102334.41;;;18.67;88.48
8398;BME280;4236;54.504;9.588;2023-06-04T12:04:30;102329.31;;;18.97;83.33
8398;BME280;4236;54.504;9.588;2023-06-04T12:06:59;102339.72;;;19.00;80.88
8398;BME280;4236;54.504;9.588;2023-06-04T12:09:29;102341.59;;;19.51;82.13
8398;BME280;4236;54.504;9.588;2023-06-04T12:11:58;102340.41;;;19.71;84.50
8398;BME280;4236;54.504;9.588;2023-06-04T12:14:26;102346.38;;;19.49;80.32
8398;BME280;4236;54.504;9.588;2023-06-04T12:16:55;102340.78;;;19.50;83.67
8398;BME280;4236;54.504;9.588;2023-06-04T12:19:25;102335.56;;;19.49;80.08
8398;BME280;4236;54.504;9.588;2023-06-04T12:22:00;102336.69;;;19.66;82.05
8398;BME280;4236;54.504;9.588;2023-06-04T12:24:29;102344.34;;;19.44;80.07
8398;BME280;4236;54.504;9.588;2023-06-04T12:27:02;102345.19;;;19.38;77.13
8398;BME280;4236;54.504;9.588;2023-06-04T12:29:30;102344.28;;;19.51;75.47
8398;BME280;4236;54.504;9.588;2023-06-04T12:32:02;102342.50;;;19.69;80.01
8398;BME280;4236;54.504;9.588;2023-06-04T12:34:32;102345.81;;;20.03;78.38
8398;BME280;4236;54.504;9.588;2023-06-04T12:36:59;102345.94;;;20.14;77.33
8398;BME280;4236;54.504;9.588;2023-06-04T12:39:27;102343.38;;;20.19;77.22
8398;BME280;4236;54.504;9.588;2023-06-04T12:41:55;102341.69;;;19.24;78.90
8398;BME280;4236;54.504;9.588;2023-06-04T12:44:23;102341.84;;;18.85;84.88
8398;BME280;4236;54.504;9.588;2023-06-04T12:46:51;102335.97;;;18.95;85.04
8398;BME280;4236;54.504;9.588;2023-06-04T12:49:19;102348.16;;;18.33;89.20
8398;BME280;4236;54.504;9.588;2023-06-04T12:51:48;102343.34;;;18.35;88.01
8398;BME280;4236;54.504;9.588;2023-06-04T12:54:16;102333.81;;;18.26;89.19
8398;BME280;4236;54.504;9.588;2023-06-04T12:56:44;102350.84;;;18.13;92.29
8398;BME280;4236;54.504;9.588;2023-06-04T12:59:12;102355.59;;;18.05;90.98
8398;BME280;4236;54.504;9.588;2023-06-04T13:01:40;102356.25;;;18.00;94.13
8398;BME280;4236;54.504;9.588;2023-06-04T13:04:08;102350.84;;;18.27;92.50
8398;BME280;4236;54.504;9.588;2023-06-04T13:06:37;102355.38;;;18.46;89.23
8398;BME280;4236;54.504;9.588;2023-06-04T13:09:06;102363.94;;;18.56;84.15
8398;BME280;4236;54.504;9.588;2023-06-04T13:11:37;102354.72;;;18.96;89.26
8398;BME280;4236;54.504;9.588;2023-06-04T13:14:05;102352.69;;;20.05;77.54
8398;BME280;4236;54.504;9.588;2023-06-04T13:16:32;102352.06;;;20.03;77.30
8398;BME280;4236;54.504;9.588;2023-06-04T13:19:00;102352.53;;;19.62;77.35
8398;BME280;4236;54.504;9.588;2023-06-04T13:21:28;102348.94;;;19.75;75.18